sensor_id;sensor_type;location;lat;lon;timestamp;temperature;humidity
41630;DHT22;27322;49.488;8.480;2023-02-10T00:02:01;1.50;99.90
41630;DHT22;27322;49.488;8.480;2023-02-10T00:04:27;1.50;99.90
41630;DHT22;27322;49.488;8.480;2023-02-10T00:06:52;1.50;99.90
41630;DHT22;27322;49.488;8.480;2023-02-10T00:09:18;1.50;99.90
41630;DHT22;27322;49.488;8.480;2023-02-10T00:11:44;1.50;99.90
41630;DHT22;27322;49.488;8.480;2023-02-10T00:14:21;1.50;99.90
41630;DHT22;27322;49.488;8.480;2023-02-10T00:16:49;1.50;99.90
41630;DHT22;27322;49.488;8.480;2023-02-10T00:19:16;1.50;99.90
41630;DHT22;27322;49.488;8.480;2023-02-10T00:21:41;1.40;99.90
41630;DHT22;27322;49.488;8.480;2023-02-10T00:24:07;1.40;99.90
41630;DHT22;27322;49.488;8.480;2023-02-10T00:26:32;1.40;99.90
41630;DHT22;27322;49.488;8.480;2023-02-10T00:28:58;1.40;99.90
41630;DHT22;27322;49.488;8.480;2023-02-10T00:31:24;1.40;99.90
41630;DHT22;27322;49.488;8.480;2023-02-10T00:33:49;1.40;99.90
41630;DHT22;27322;49.488;8.480;2023-02-10T00:36:15;1.40;99.90
41630;DHT22;27322;49.488;8.480;2023-02-10T00:38:42;1.40;99.90
41630;DHT22;27322;49.488;8.480;2023-02-10T00:41:14;1.30;99.90
41630;DHT22;27322;49.488;8.480;2023-02-10T00:43:40;1.30;99.90
41630;DHT22;27322;49.488;8.480;2023-02-10T00:46:07;1.30;99.90
41630;DHT22;27322;49.488;8.480;2023-02-10T00:48:34;1.30;99.90
41630;DHT22;27322;49.488;8.480;2023-02-10T00:51:00;1.30;99.90
41630;DHT22;27322;49.488;8.480;2023-02-10T00:53:25;1.20;99.90
41630;DHT22;27322;49.488;8.480;2023-02-10T00:55:52;1.30;99.90
41630;DHT22;27322;49.488;8.480;2023-02-10T00:58:17;1.20;99.90
41630;DHT22;27322;49.488;8.480;2023-02-10T01:00:43;1.20;99.90
41630;DHT22;27322;49.488;8.480;2023-02-10T01:03:08;1.20;99.90
41630;DHT22;27322;49.488;8.480;2023-02-10T01:05:35;1.20;99.90
41630;DHT22;27322;49.488;8.480;2023-02-10T01:08:00;1.20;99.90
41630;DHT22;27322;49.488;8.480;2023-02-10T01:10:26;1.20;99.90
41630;DHT22;27322;49.488;8.480;2023-02-10T01:12:52;1.20;99.90
41630;DHT22;27322;49.488;8.480;2023-02-10T01:15:18;1.20;99.90
41630;DHT22;27322;49.488;8.480;2023-02-10T01:17:44;1.10;99.90
41630;DHT22;27322;49.488;8.480;2023-02-10T01:20:10;1.10;99.90
41630;DHT22;27322;49.488;8.480;2023-02-10T01:22:36;1.10;99.90
41630;DHT22;27322;49.488;8.480;2023-02-10T01:25:02;1.10;99.90
41630;DHT22;27322;49.488;8.480;2023-02-10T01:27:28;1.10;99.90
41630;DHT22;27322;49.488;8.480;2023-02-10T01:29:53;1.10;99.90
41630;DHT22;27322;49.488;8.480;2023-02-10T01:32:19;1.10;99.90
41630;DHT22;27322;49.488;8.480;2023-02-10T01:34:44;1.10;99.90
41630;DHT22;27322;49.488;8.480;2023-02-10T01:37:10;1.10;99.90
41630;DHT22;27322;49.488;8.480;2023-02-10T01:39:36;1.10;99.90
41630;DHT22;27322;49.488;8.480;2023-02-10T01:42:01;1.10;99.90
41630;DHT22;27322;49.488;8.480;2023-02-10T01:46:54;1.10;99.90
41630;DHT22;27322;49.488;8.480;2023-02-10T01:49:23;1.10;99.90
41630;DHT22;27322;49.488;8.480;2023-02-10T01:51:54;1.10;99.90
41630;DHT22;27322;49.488;8.480;2023-02-10T01:54:27;1.10;99.90
41630;DHT22;27322;49.488;8.480;2023-02-10T01:56:55;1.10;99.90
41630;DHT22;27322;49.488;8.480;2023-02-10T01:59:23;1.10;99.90
41630;DHT22;27322;49.488;8.480;2023-02-10T02:01:50;1.10;99.90
41630;DHT22;27322;49.488;8.480;2023-02-10T02:04:16;1.00;99.90
41630;DHT22;27322;49.488;8.480;2023-02-10T02:06:41;1.00;99.90
41630;DHT22;27322;49.488;8.480;2023-02-10T02:09:08;1.00;99.90
41630;DHT22;27322;49.488;8.480;2023-02-10T02:12:27;1.00;99.90
41630;DHT22;27322;49.488;8.480;2023-02-10T02:14:40;1.00;99.90
41630;DHT22;27322;49.488;8.480;2023-02-10T02:23:25;0.90;99.90
41630;DHT22;27322;49.488;8.480;2023-02-10T02:31:56;0.90;99.90
41630;DHT22;27322;49.488;8.480;2023-02-10T02:37:09;0.90;99.90
41630;DHT22;27322;49.488;8.480;2023-02-10T02:39:35;0.80;99.90
41630;DHT22;27322;49.488;8.480;2023-02-10T02:42:20;0.80;99.90
41630;DHT22;27322;49.488;8.480;2023-02-10T02:44:53;0.80;99.90
41630;DHT22;27322;49.488;8.480;2023-02-10T02:50:38;0.80;99.90
41630;DHT22;27322;49.488;8.480;2023-02-10T02:53:35;0.80;99.90
41630;DHT22;27322;49.488;8.480;2023-02-10T02:56:14;0.80;99.90
41630;DHT22;27322;49.488;8.480;2023-02-10T02:59:19;0.80;99.90
41630;DHT22;27322;49.488;8.480;2023-02-10T03:01:53;0.80;99.90
41630;DHT22;27322;49.488;8.480;2023-02-10T03:04:20;0.80;99.90
41630;DHT22;27322;49.488;8.480;2023-02-10T03:06:46;0.80;99.90
41630;DHT22;27322;49.488;8.480;2023-02-10T03:09:12;0.80;99.90
41630;DHT22;27322;49.488;8.480;2023-02-10T03:11:38;0.80;99.90
41630;DHT22;27322;49.488;8.480;2023-02-10T03:14:04;0.80;99.90
41630;DHT22;27322;49.488;8.480;2023-02-10T03:16:29;0.80;99.90
41630;DHT22;27322;49.488;8.480;2023-02-10T03:18:55;0.80;99.90
41630;DHT22;27322;49.488;8.480;2023-02-10T03:21:21;0.80;99.90
41630;DHT22;27322;49.488;8.480;2023-02-10T03:23:46;0.80;99.90
41630;DHT22;27322;49.488;8.480;2023-02-10T03:26:12;0.80;99.90
41630;DHT22;27322;49.488;8.480;2023-02-10T03:28:38;0.70;99.90
41630;DHT22;27322;49.488;8.480;2023-02-10T03:31:05;0.80;99.90
41630;DHT22;27322;49.488;8.480;2023-02-10T03:33:32;0.80;99.90
41630;DHT22;27322;49.488;8.480;2023-02-10T03:35:58;0.80;99.90
41630;DHT22;27322;49.488;8.480;2023-02-10T03:38:24;0.80;99.90
41630;DHT22;27322;49.488;8.480;2023-02-10T03:40:53;0.70;99.90
41630;DHT22;27322;49.488;8.480;2023-02-10T03:43:20;0.70;99.90
41630;DHT22;27322;49.488;8.480;2023-02-10T03:45:47;0.70;99.90
41630;DHT22;27322;49.488;8.480;2023-02-10T03:48:13;0.70;99.90
41630;DHT22;27322;49.488;8.480;2023-02-10T03:50:38;0.70;99.90
41630;DHT22;27322;49.488;8.480;2023-02-10T03:53:04;0.70;99.90
41630;DHT22;27322;49.488;8.480;2023-02-10T03:55:30;0.70;99.90
41630;DHT22;27322;49.488;8.480;2023-02-10T03:57:56;0.60;99.90
41630;DHT22;27322;49.488;8.480;2023-02-10T04:00:22;0.60;99.90
41630;DHT22;27322;49.488;8.480;2023-02-10T04:02:48;0.60;99.90
41630;DHT22;27322;49.488;8.480;2023-02-10T04:05:14;0.60;99.90
41630;DHT22;27322;49.488;8.480;2023-02-10T04:07:40;0.70;99.90
41630;DHT22;27322;49.488;8.480;2023-02-10T04:10:06;0.60;99.90
41630;DHT22;27322;49.488;8.480;2023-02-10T04:12:32;0.70;99.90
41630;DHT22;27322;49.488;8.480;2023-02-10T04:14:57;0.60;99.90
41630;DHT22;27322;49.488;8.480;2023-02-10T04:17:23;0.70;99.90
41630;DHT22;27322;49.488;8.480;2023-02-10T04:19:49;0.70;99.90
41630;DHT22;27322;49.488;8.480;2023-02-10T04:22:15;0.70;99.90
41630;DHT22;27322;49.488;8.480;2023-02-10T04:24:40;0.70;99.90
41630;DHT22;27322;49.488;8.480;2023-02-10T04:27:06;0.70;99.90
41630;DHT22;27322;49.488;8.480;2023-02-10T04:29:32;0.70;99.90
41630;DHT22;27322;49.488;8.480;2023-02-10T04:31:59;0.70;99.90
41630;DHT22;27322;49.488;8.480;2023-02-10T04:34:24;0.70;99.90
41630;DHT22;27322;49.488;8.480;2023-02-10T04:36:50;0.70;99.90
41630;DHT22;27322;49.488;8.480;2023-02-10T04:39:15;0.70;99.90
41630;DHT22;27322;49.488;8.480;2023-02-10T04:41:41;0.70;99.90
41630;DHT22;27322;49.488;8.480;2023-02-10T04:44:07;0.70;99.90
41630;DHT22;27322;49.488;8.480;2023-02-10T04:46:32;0.70;99.90
41630;DHT22;27322;49.488;8.480;2023-02-10T04:48:58;0.70;99.90
41630;DHT22;27322;49.488;8.480;2023-02-10T04:51:23;0.70;99.90
41630;DHT22;27322;49.488;8.480;2023-02-10T04:53:49;0.70;99.90
41630;DHT22;27322;49.488;8.480;2023-02-10T04:56:15;0.70;99.90
41630;DHT22;27322;49.488;8.480;2023-02-10T04:58:41;0.70;99.90
41630;DHT22;27322;49.488;8.480;2023-02-10T05:01:07;0.70;99.90
41630;DHT22;27322;49.488;8.480;2023-02-10T05:03:33;0.70;99.90
41630;DHT22;27322;49.488;8.480;2023-02-10T05:05:59;0.70;99.90
41630;DHT22;27322;49.488;8.480;2023-02-10T05:08:25;0.70;99.90
41630;DHT22;27322;49.488;8.480;2023-02-10T05:10:51;0.70;99.90
41630;DHT22;27322;49.488;8.480;2023-02-10T05:13:18;0.70;99.90
41630;DHT22;27322;49.488;8.480;2023-02-10T05:15:43;0.60;99.90
41630;DHT22;27322;49.488;8.480;2023-02-10T05:18:09;0.60;99.90
41630;DHT22;27322;49.488;8.480;2023-02-10T05:20:35;0.60;99.90
41630;DHT22;27322;49.488;8.480;2023-02-10T05:23:01;0.60;99.90
41630;DHT22;27322;49.488;8.480;2023-02-10T05:25:26;0.60;99.90
41630;DHT22;27322;49.488;8.480;2023-02-10T05:27:52;0.60;99.90
41630;DHT22;27322;49.488;8.480;2023-02-10T05:30:18;0.60;99.90
41630;DHT22;27322;49.488;8.480;2023-02-10T05:32:43;0.60;99.90
41630;DHT22;27322;49.488;8.480;2023-02-10T05:35:09;0.50;99.90
41630;DHT22;27322;49.488;8.480;2023-02-10T05:37:35;0.60;99.90
41630;DHT22;27322;49.488;8.480;2023-02-10T05:40:01;0.50;99.90
41630;DHT22;27322;49.488;8.480;2023-02-10T05:42:27;0.50;99.90
41630;DHT22;27322;49.488;8.480;2023-02-10T05:44:53;0.50;99.90
41630;DHT22;27322;49.488;8.480;2023-02-10T05:47:19;0.50;99.90
41630;DHT22;27322;49.488;8.480;2023-02-10T05:49:44;0.50;99.90
41630;DHT22;27322;49.488;8.480;2023-02-10T05:52:10;0.50;99.90
41630;DHT22;27322;49.488;8.480;2023-02-10T05:54:35;0.50;99.90
41630;DHT22;27322;49.488;8.480;2023-02-10T05:57:01;0.60;99.90
41630;DHT22;27322;49.488;8.480;2023-02-10T05:59:27;0.60;99.90
41630;DHT22;27322;49.488;8.480;2023-02-10T06:01:53;0.60;99.90
41630;DHT22;27322;49.488;8.480;2023-02-10T06:04:18;0.60;99.90
41630;DHT22;27322;49.488;8.480;2023-02-10T06:06:44;0.60;99.90
41630;DHT22;27322;49.488;8.480;2023-02-10T06:09:13;0.60;99.90
41630;DHT22;27322;49.488;8.480;2023-02-10T06:11:38;0.60;99.90
41630;DHT22;27322;49.488;8.480;2023-02-10T06:14:04;0.70;99.90
41630;DHT22;27322;49.488;8.480;2023-02-10T06:16:30;0.70;99.90
41630;DHT22;27322;49.488;8.480;2023-02-10T06:18:55;0.70;99.90
41630;DHT22;27322;49.488;8.480;2023-02-10T06:21:21;0.70;99.90
41630;DHT22;27322;49.488;8.480;2023-02-10T06:23:48;0.80;99.90
41630;DHT22;27322;49.488;8.480;2023-02-10T06:26:14;0.80;99.90
41630;DHT22;27322;49.488;8.480;2023-02-10T06:28:40;0.80;99.90
41630;DHT22;27322;49.488;8.480;2023-02-10T06:31:06;0.90;99.90
41630;DHT22;27322;49.488;8.480;2023-02-10T06:33:33;0.90;99.90
41630;DHT22;27322;49.488;8.480;2023-02-10T06:36:01;0.90;99.90
41630;DHT22;27322;49.488;8.480;2023-02-10T06:38:29;0.90;99.90
41630;DHT22;27322;49.488;8.480;2023-02-10T06:40:54;0.90;99.90
41630;DHT22;27322;49.488;8.480;2023-02-10T06:43:20;0.90;99.90
41630;DHT22;27322;49.488;8.480;2023-02-10T06:45:46;0.90;99.90
41630;DHT22;27322;49.488;8.480;2023-02-10T06:48:11;0.90;99.90
41630;DHT22;27322;49.488;8.480;2023-02-10T06:50:37;0.90;99.90
41630;DHT22;27322;49.488;8.480;2023-02-10T06:53:03;0.90;99.90
41630;DHT22;27322;49.488;8.480;2023-02-10T06:55:29;0.90;99.90
41630;DHT22;27322;49.488;8.480;2023-02-10T06:57:58;0.90;99.90
41630;DHT22;27322;49.488;8.480;2023-02-10T07:00:24;0.90;99.90
41630;DHT22;27322;49.488;8.480;2023-02-10T07:02:49;0.90;99.90
41630;DHT22;27322;49.488;8.480;2023-02-10T07:05:15;0.90;99.90
41630;DHT22;27322;49.488;8.480;2023-02-10T07:07:42;0.90;99.90
41630;DHT22;27322;49.488;8.480;2023-02-10T07:10:08;1.00;99.90
41630;DHT22;27322;49.488;8.480;2023-02-10T07:12:34;1.00;99.90
41630;DHT22;27322;49.488;8.480;2023-02-10T07:15:00;1.00;99.90
41630;DHT22;27322;49.488;8.480;2023-02-10T07:17:26;1.10;99.90
41630;DHT22;27322;49.488;8.480;2023-02-10T07:19:51;1.10;99.90
41630;DHT22;27322;49.488;8.480;2023-02-10T07:22:17;1.10;99.90
41630;DHT22;27322;49.488;8.480;2023-02-10T07:24:43;1.10;99.90
41630;DHT22;27322;49.488;8.480;2023-02-10T07:27:08;1.10;99.90
41630;DHT22;27322;49.488;8.480;2023-02-10T07:29:34;1.10;99.90
41630;DHT22;27322;49.488;8.480;2023-02-10T07:31:59;1.10;99.90
41630;DHT22;27322;49.488;8.480;2023-02-10T07:34:26;1.10;99.90
41630;DHT22;27322;49.488;8.480;2023-02-10T07:36:52;1.10;99.90
41630;DHT22;27322;49.488;8.480;2023-02-10T07:39:21;1.20;99.90
41630;DHT22;27322;49.488;8.480;2023-02-10T07:41:47;1.20;99.90
41630;DHT22;27322;49.488;8.480;2023-02-10T07:44:13;1.20;99.90
41630;DHT22;27322;49.488;8.480;2023-02-10T07:46:38;1.20;99.90
41630;DHT22;27322;49.488;8.480;2023-02-10T07:49:04;1.20;99.90
41630;DHT22;27322;49.488;8.480;2023-02-10T07:51:30;1.20;99.90
41630;DHT22;27322;49.488;8.480;2023-02-10T07:53:56;1.20;99.90
41630;DHT22;27322;49.488;8.480;2023-02-10T07:56:21;1.30;99.90
41630;DHT22;27322;49.488;8.480;2023-02-10T07:58:47;1.30;99.90
41630;DHT22;27322;49.488;8.480;2023-02-10T08:01:12;1.30;99.90
41630;DHT22;27322;49.488;8.480;2023-02-10T08:03:38;1.30;99.90
41630;DHT22;27322;49.488;8.480;2023-02-10T08:06:05;1.30;99.90
41630;DHT22;27322;49.488;8.480;2023-02-10T08:08:31;1.30;99.90
41630;DHT22;27322;49.488;8.480;2023-02-10T08:10:56;1.40;99.90
41630;DHT22;27322;49.488;8.480;2023-02-10T08:13:22;1.30;99.90
41630;DHT22;27322;49.488;8.480;2023-02-10T08:15:48;1.40;99.90
41630;DHT22;27322;49.488;8.480;2023-02-10T08:18:14;1.40;99.90
41630;DHT22;27322;49.488;8.480;2023-02-10T08:20:40;1.40;99.90
41630;DHT22;27322;49.488;8.480;2023-02-10T08:23:06;1.50;99.90
41630;DHT22;27322;49.488;8.480;2023-02-10T08:25:32;1.50;99.90
41630;DHT22;27322;49.488;8.480;2023-02-10T08:27:58;1.50;99.90
41630;DHT22;27322;49.488;8.480;2023-02-10T08:30:24;1.50;99.90
41630;DHT22;27322;49.488;8.480;2023-02-10T08:32:50;1.60;99.90
41630;DHT22;27322;49.488;8.480;2023-02-10T08:35:16;1.60;99.90
41630;DHT22;27322;49.488;8.480;2023-02-10T08:37:42;1.60;99.90
41630;DHT22;27322;49.488;8.480;2023-02-10T08:40:08;1.70;99.90
41630;DHT22;27322;49.488;8.480;2023-02-10T08:42:34;1.70;99.90
41630;DHT22;27322;49.488;8.480;2023-02-10T08:45:00;1.70;99.90
41630;DHT22;27322;49.488;8.480;2023-02-10T08:47:26;1.70;99.90
41630;DHT22;27322;49.488;8.480;2023-02-10T08:49:52;1.80;99.90
41630;DHT22;27322;49.488;8.480;2023-02-10T08:52:18;1.80;99.90
41630;DHT22;27322;49.488;8.480;2023-02-10T08:54:43;1.90;99.90
41630;DHT22;27322;49.488;8.480;2023-02-10T08:57:09;2.00;99.90
41630;DHT22;27322;49.488;8.480;2023-02-10T08:59:35;2.00;99.90
41630;DHT22;27322;49.488;8.480;2023-02-10T09:02:01;2.10;99.90
41630;DHT22;27322;49.488;8.480;2023-02-10T09:04:27;2.10;99.90
41630;DHT22;27322;49.488;8.480;2023-02-10T09:06:53;2.20;99.90
41630;DHT22;27322;49.488;8.480;2023-02-10T09:09:22;2.20;99.90
41630;DHT22;27322;49.488;8.480;2023-02-10T09:11:50;2.30;99.90
41630;DHT22;27322;49.488;8.480;2023-02-10T09:14:16;2.30;99.90
41630;DHT22;27322;49.488;8.480;2023-02-10T09:16:42;2.30;99.90
41630;DHT22;27322;49.488;8.480;2023-02-10T09:19:08;2.30;99.90
41630;DHT22;27322;49.488;8.480;2023-02-10T09:21:34;2.40;99.90
41630;DHT22;27322;49.488;8.480;2023-02-10T09:23:59;2.40;99.90
41630;DHT22;27322;49.488;8.480;2023-02-10T09:26:25;2.40;99.90
41630;DHT22;27322;49.488;8.480;2023-02-10T09:28:51;2.40;99.90
41630;DHT22;27322;49.488;8.480;2023-02-10T09:31:16;2.50;99.90
41630;DHT22;27322;49.488;8.480;2023-02-10T09:33:43;2.50;99.90
41630;DHT22;27322;49.488;8.480;2023-02-10T09:36:16;2.50;99.90
41630;DHT22;27322;49.488;8.480;2023-02-10T09:38:42;2.60;99.90
41630;DHT22;27322;49.488;8.480;2023-02-10T09:44:40;2.70;99.90
41630;DHT22;27322;49.488;8.480;2023-02-10T09:47:15;2.70;99.90
41630;DHT22;27322;49.488;8.480;2023-02-10T09:55:52;2.80;99.90
41630;DHT22;27322;49.488;8.480;2023-02-10T10:01:10;2.90;99.90
41630;DHT22;27322;49.488;8.480;2023-02-10T10:03:47;3.00;99.90
41630;DHT22;27322;49.488;8.480;2023-02-10T10:06:27;3.00;99.90
41630;DHT22;27322;49.488;8.480;2023-02-10T10:11:47;3.10;99.90
41630;DHT22;27322;49.488;8.480;2023-02-10T10:23:01;3.20;99.90
41630;DHT22;27322;49.488;8.480;2023-02-10T10:29:04;3.30;99.90
41630;DHT22;27322;49.488;8.480;2023-02-10T10:31:39;3.30;99.90
41630;DHT22;27322;49.488;8.480;2023-02-10T10:34:18;3.40;99.90
41630;DHT22;27322;49.488;8.480;2023-02-10T10:36:48;3.40;99.90
41630;DHT22;27322;49.488;8.480;2023-02-10T10:41:52;3.50;99.90
41630;DHT22;27322;49.488;8.480;2023-02-10T10:44:18;3.60;99.90
41630;DHT22;27322;49.488;8.480;2023-02-10T10:49:10;3.70;99.90
41630;DHT22;27322;49.488;8.480;2023-02-10T10:51:36;3.70;99.90
41630;DHT22;27322;49.488;8.480;2023-02-10T10:54:05;3.80;99.90
41630;DHT22;27322;49.488;8.480;2023-02-10T10:56:39;3.80;99.90
41630;DHT22;27322;49.488;8.480;2023-02-10T11:01:49;3.90;99.90
41630;DHT22;27322;49.488;8.480;2023-02-10T11:04:23;3.90;99.90
41630;DHT22;27322;49.488;8.480;2023-02-10T11:06:54;3.90;99.90
41630;DHT22;27322;49.488;8.480;2023-02-10T11:11:49;4.00;99.90
41630;DHT22;27322;49.488;8.480;2023-02-10T11:14:18;4.00;99.90
41630;DHT22;27322;49.488;8.480;2023-02-10T11:16:49;4.00;99.90
41630;DHT22;27322;49.488;8.480;2023-02-10T11:19:24;4.10;99.90
41630;DHT22;27322;49.488;8.480;2023-02-10T11:21:51;4.10;99.90
41630;DHT22;27322;49.488;8.480;2023-02-10T11:29:29;4.20;99.90
41630;DHT22;27322;49.488;8.480;2023-02-10T11:31:56;4.20;99.90
41630;DHT22;27322;49.488;8.480;2023-02-10T11:36:57;4.30;99.90
41630;DHT22;27322;49.488;8.480;2023-02-10T11:41:50;4.20;99.90
41630;DHT22;27322;49.488;8.480;2023-02-10T11:44:29;4.30;99.90
41630;DHT22;27322;49.488;8.480;2023-02-10T11:47:01;4.40;99.90
41630;DHT22;27322;49.488;8.480;2023-02-10T11:49:28;4.40;99.90
41630;DHT22;27322;49.488;8.480;2023-02-10T11:51:58;4.50;99.90
41630;DHT22;27322;49.488;8.480;2023-02-10T11:54:25;4.50;99.90
41630;DHT22;27322;49.488;8.480;2023-02-10T11:57:31;4.60;99.90
41630;DHT22;27322;49.488;8.480;2023-02-10T12:03:18;4.70;99.90
41630;DHT22;27322;49.488;8.480;2023-02-10T12:11:19;4.80;99.90
41630;DHT22;27322;49.488;8.480;2023-02-10T12:16:51;5.00;99.90
41630;DHT22;27322;49.488;8.480;2023-02-10T12:22:18;5.00;99.90
41630;DHT22;27322;49.488;8.480;2023-02-10T12:31:16;5.20;99.90
41630;DHT22;27322;49.488;8.480;2023-02-10T12:39:24;5.20;99.90
41630;DHT22;27322;49.488;8.480;2023-02-10T12:42:35;5.20;99.90
41630;DHT22;27322;49.488;8.480;2023-02-10T12:45:04;5.30;99.90
41630;DHT22;27322;49.488;8.480;2023-02-10T12:52:47;5.30;99.90
41630;DHT22;27322;49.488;8.480;2023-02-10T12:55:25;5.30;99.90
41630;DHT22;27322;49.488;8.480;2023-02-10T12:57:59;5.30;99.90
41630;DHT22;27322;49.488;8.480;2023-02-10T13:00:41;5.30;99.90
41630;DHT22;27322;49.488;8.480;2023-02-10T13:03:12;5.40;99.90
41630;DHT22;27322;49.488;8.480;2023-02-10T13:08:39;5.50;99.90
41630;DHT22;27322;49.488;8.480;2023-02-10T13:11:14;5.50;99.90
41630;DHT22;27322;49.488;8.480;2023-02-10T13:13:42;5.50;99.90
41630;DHT22;27322;49.488;8.480;2023-02-10T13:16:15;5.60;99.90
41630;DHT22;27322;49.488;8.480;2023-02-10T13:21:57;5.60;99.90
41630;DHT22;27322;49.488;8.480;2023-02-10T13:24:31;5.60;99.90
41630;DHT22;27322;49.488;8.480;2023-02-10T13:35:21;5.70;99.90
41630;DHT22;27322;49.488;8.480;2023-02-10T13:38:14;5.80;99.90
41630;DHT22;27322;49.488;8.480;2023-02-10T13:43:30;5.90;99.90
41630;DHT22;27322;49.488;8.480;2023-02-10T13:45:56;5.90;99.90
41630;DHT22;27322;49.488;8.480;2023-02-10T13:48:29;5.90;99.90
41630;DHT22;27322;49.488;8.480;2023-02-10T13:51:04;6.00;99.90
41630;DHT22;27322;49.488;8.480;2023-02-10T13:59:05;6.10;99.90
41630;DHT22;27322;49.488;8.480;2023-02-10T14:04:29;6.20;99.90
41630;DHT22;27322;49.488;8.480;2023-02-10T14:06:53;6.20;99.90
41630;DHT22;27322;49.488;8.480;2023-02-10T14:11:55;6.20;99.90
41630;DHT22;27322;49.488;8.480;2023-02-10T14:14:36;6.20;99.90
41630;DHT22;27322;49.488;8.480;2023-02-10T14:17:28;6.20;99.90
41630;DHT22;27322;49.488;8.480;2023-02-10T14:19:57;6.20;99.90
41630;DHT22;27322;49.488;8.480;2023-02-10T14:22:32;6.20;99.90
41630;DHT22;27322;49.488;8.480;2023-02-10T14:25:38;6.20;99.90
41630;DHT22;27322;49.488;8.480;2023-02-10T14:28:06;6.30;99.90
41630;DHT22;27322;49.488;8.480;2023-02-10T14:30:43;6.30;99.90
41630;DHT22;27322;49.488;8.480;2023-02-10T14:33:19;6.30;99.90
41630;DHT22;27322;49.488;8.480;2023-02-10T14:35:50;6.30;99.90
41630;DHT22;27322;49.488;8.480;2023-02-10T14:38:21;6.30;99.90
41630;DHT22;27322;49.488;8.480;2023-02-10T14:40:47;6.30;99.90
41630;DHT22;27322;49.488;8.480;2023-02-10T14:43:14;6.30;99.90
41630;DHT22;27322;49.488;8.480;2023-02-10T14:45:45;6.30;99.90
41630;DHT22;27322;49.488;8.480;2023-02-10T14:48:13;6.30;99.90
41630;DHT22;27322;49.488;8.480;2023-02-10T14:50:39;6.30;99.90
41630;DHT22;27322;49.488;8.480;2023-02-10T14:53:05;6.30;99.90
41630;DHT22;27322;49.488;8.480;2023-02-10T14:55:35;6.30;99.90
41630;DHT22;27322;49.488;8.480;2023-02-10T15:00:41;6.30;99.90
41630;DHT22;27322;49.488;8.480;2023-02-10T15:03:11;6.30;99.90
41630;DHT22;27322;49.488;8.480;2023-02-10T15:05:46;6.30;99.90
41630;DHT22;27322;49.488;8.480;2023-02-10T15:08:17;6.40;99.90
41630;DHT22;27322;49.488;8.480;2023-02-10T15:10:47;6.40;99.90
41630;DHT22;27322;49.488;8.480;2023-02-10T15:13:15;6.40;99.90
41630;DHT22;27322;49.488;8.480;2023-02-10T15:15:45;6.40;99.90
41630;DHT22;27322;49.488;8.480;2023-02-10T15:18:23;6.40;99.90
41630;DHT22;27322;49.488;8.480;2023-02-10T15:20:53;6.40;99.90
41630;DHT22;27322;49.488;8.480;2023-02-10T15:23:19;6.40;99.90
41630;DHT22;27322;49.488;8.480;2023-02-10T15:25:45;6.40;99.90
41630;DHT22;27322;49.488;8.480;2023-02-10T15:34:02;6.50;99.90
41630;DHT22;27322;49.488;8.480;2023-02-10T15:36:33;6.50;99.90
41630;DHT22;27322;49.488;8.480;2023-02-10T15:39:06;6.50;99.90
41630;DHT22;27322;49.488;8.480;2023-02-10T15:41:55;6.50;99.90
41630;DHT22;27322;49.488;8.480;2023-02-10T15:44:34;6.50;99.90
41630;DHT22;27322;49.488;8.480;2023-02-10T15:49:53;6.50;99.90
41630;DHT22;27322;49.488;8.480;2023-02-10T15:52:20;6.60;99.90
41630;DHT22;27322;49.488;8.480;2023-02-10T15:54:46;6.60;99.90
41630;DHT22;27322;49.488;8.480;2023-02-10T15:57:15;6.60;99.90
41630;DHT22;27322;49.488;8.480;2023-02-10T15:59:41;6.60;99.90
41630;DHT22;27322;49.488;8.480;2023-02-10T16:02:11;6.60;99.90
41630;DHT22;27322;49.488;8.480;2023-02-10T16:04:38;6.60;99.90
41630;DHT22;27322;49.488;8.480;2023-02-10T16:07:04;6.60;99.90
41630;DHT22;27322;49.488;8.480;2023-02-10T16:09:31;6.60;99.90
41630;DHT22;27322;49.488;8.480;2023-02-10T16:11:58;6.60;99.90
41630;DHT22;27322;49.488;8.480;2023-02-10T16:14:24;6.60;99.90
41630;DHT22;27322;49.488;8.480;2023-02-10T16:16:53;6.60;99.90
41630;DHT22;27322;49.488;8.480;2023-02-10T16:19:21;6.60;99.90
41630;DHT22;27322;49.488;8.480;2023-02-10T16:21:47;6.50;99.90
41630;DHT22;27322;49.488;8.480;2023-02-10T16:24:18;6.50;99.90
41630;DHT22;27322;49.488;8.480;2023-02-10T16:26:46;6.50;99.90
41630;DHT22;27322;49.488;8.480;2023-02-10T16:29:17;6.50;99.90
41630;DHT22;27322;49.488;8.480;2023-02-10T16:31:42;6.50;99.90
41630;DHT22;27322;49.488;8.480;2023-02-10T16:34:09;6.40;99.90
41630;DHT22;27322;49.488;8.480;2023-02-10T16:36:34;6.40;99.90
41630;DHT22;27322;49.488;8.480;2023-02-10T16:39:00;6.40;99.90
41630;DHT22;27322;49.488;8.480;2023-02-10T16:41:26;6.40;99.90
41630;DHT22;27322;49.488;8.480;2023-02-10T16:43:52;6.40;99.90
41630;DHT22;27322;49.488;8.480;2023-02-10T16:46:18;6.40;99.90
41630;DHT22;27322;49.488;8.480;2023-02-10T16:48:46;6.30;99.90
41630;DHT22;27322;49.488;8.480;2023-02-10T16:51:12;6.30;99.90
41630;DHT22;27322;49.488;8.480;2023-02-10T16:53:38;6.30;99.90
41630;DHT22;27322;49.488;8.480;2023-02-10T16:56:03;6.30;99.90
41630;DHT22;27322;49.488;8.480;2023-02-10T16:58:29;6.30;99.90
41630;DHT22;27322;49.488;8.480;2023-02-10T17:00:55;6.30;99.90
41630;DHT22;27322;49.488;8.480;2023-02-10T17:03:21;6.30;99.90
41630;DHT22;27322;49.488;8.480;2023-02-10T17:05:48;6.20;99.90
41630;DHT22;27322;49.488;8.480;2023-02-10T17:08:14;6.20;99.90
41630;DHT22;27322;49.488;8.480;2023-02-10T17:10:39;6.20;99.90
41630;DHT22;27322;49.488;8.480;2023-02-10T17:13:05;6.20;99.90
41630;DHT22;27322;49.488;8.480;2023-02-10T17:15:31;6.10;99.90
41630;DHT22;27322;49.488;8.480;2023-02-10T17:17:57;6.10;99.90
41630;DHT22;27322;49.488;8.480;2023-02-10T17:20:24;6.10;99.90
41630;DHT22;27322;49.488;8.480;2023-02-10T17:22:50;6.10;99.90
41630;DHT22;27322;49.488;8.480;2023-02-10T17:25:20;6.10;99.90
41630;DHT22;27322;49.488;8.480;2023-02-10T17:27:48;6.10;99.90
41630;DHT22;27322;49.488;8.480;2023-02-10T17:30:16;6.00;99.90
41630;DHT22;27322;49.488;8.480;2023-02-10T17:32:43;6.00;99.90
41630;DHT22;27322;49.488;8.480;2023-02-10T17:35:14;6.00;99.90
41630;DHT22;27322;49.488;8.480;2023-02-10T17:37:41;6.00;99.90
41630;DHT22;27322;49.488;8.480;2023-02-10T17:40:15;6.00;99.90
41630;DHT22;27322;49.488;8.480;2023-02-10T17:42:47;6.00;99.90
41630;DHT22;27322;49.488;8.480;2023-02-10T17:45:14;6.00;99.90
41630;DHT22;27322;49.488;8.480;2023-02-10T17:47:41;6.00;99.90
41630;DHT22;27322;49.488;8.480;2023-02-10T17:50:07;6.00;99.90
41630;DHT22;27322;49.488;8.480;2023-02-10T17:52:32;5.90;99.90
41630;DHT22;27322;49.488;8.480;2023-02-10T17:54:58;6.00;99.90
41630;DHT22;27322;49.488;8.480;2023-02-10T17:57:24;5.90;99.90
41630;DHT22;27322;49.488;8.480;2023-02-10T17:59:49;5.90;99.90
41630;DHT22;27322;49.488;8.480;2023-02-10T18:02:15;6.00;99.90
41630;DHT22;27322;49.488;8.480;2023-02-10T18:04:41;6.00;99.90
41630;DHT22;27322;49.488;8.480;2023-02-10T18:07:12;5.90;99.90
41630;DHT22;27322;49.488;8.480;2023-02-10T18:09:38;5.90;99.90
41630;DHT22;27322;49.488;8.480;2023-02-10T18:12:04;5.90;99.90